sensor_id;sensor_type;location;lat;lon;timestamp;temperature;humidity
15296;DHT22;7749;49.964;7.890;2023-04-25T00:01:24;9.50;99.90
15296;DHT22;7749;49.964;7.890;2023-04-25T00:03:52;9.50;99.90
15296;DHT22;7749;49.964;7.890;2023-04-25T00:06:20;9.50;99.90
15296;DHT22;7749;49.964;7.890;2023-04-25T00:08:48;9.60;99.90
15296;DHT22;7749;49.964;7.890;2023-04-25T00:11:16;9.40;99.90
15296;DHT22;7749;49.964;7.890;2023-04-25T00:13:43;9.50;99.90
15296;DHT22;7749;49.964;7.890;2023-04-25T00:16:11;9.50;99.90
15296;DHT22;7749;49.964;7.890;2023-04-25T00:18:42;9.60;99.90
15296;DHT22;7749;49.964;7.890;2023-04-25T00:21:10;9.50;99.90
15296;DHT22;7749;49.964;7.890;2023-04-25T00:23:37;9.50;99.90
15296;DHT22;7749;49.964;7.890;2023-04-25T00:26:06;9.60;99.90
15296;DHT22;7749;49.964;7.890;2023-04-25T00:28:34;9.50;99.90
15296;DHT22;7749;49.964;7.890;2023-04-25T00:31:01;9.60;99.90
15296;DHT22;7749;49.964;7.890;2023-04-25T00:33:29;9.60;99.90
15296;DHT22;7749;49.964;7.890;2023-04-25T00:35:57;9.50;99.90
15296;DHT22;7749;49.964;7.890;2023-04-25T00:38:25;9.70;99.90
15296;DHT22;7749;49.964;7.890;2023-04-25T00:41:05;9.60;99.90
15296;DHT22;7749;49.964;7.890;2023-04-25T00:43:39;9.60;99.90
15296;DHT22;7749;49.964;7.890;2023-04-25T00:46:07;9.60;99.90
15296;DHT22;7749;49.964;7.890;2023-04-25T00:48:38;9.70;99.90
15296;DHT22;7749;49.964;7.890;2023-04-25T00:51:06;9.70;99.90
15296;DHT22;7749;49.964;7.890;2023-04-25T00:53:34;9.60;99.90
15296;DHT22;7749;49.964;7.890;2023-04-25T00:56:02;9.60;99.90
15296;DHT22;7749;49.964;7.890;2023-04-25T00:58:35;9.50;99.90
15296;DHT22;7749;49.964;7.890;2023-04-25T01:01:03;9.50;99.90
15296;DHT22;7749;49.964;7.890;2023-04-25T01:03:33;9.50;99.90
15296;DHT22;7749;49.964;7.890;2023-04-25T01:06:03;9.50;99.90
15296;DHT22;7749;49.964;7.890;2023-04-25T01:08:31;9.40;99.90
15296;DHT22;7749;49.964;7.890;2023-04-25T01:10:59;9.30;99.90
15296;DHT22;7749;49.964;7.890;2023-04-25T01:13:26;9.40;99.90
15296;DHT22;7749;49.964;7.890;2023-04-25T01:15:54;9.40;99.90
15296;DHT22;7749;49.964;7.890;2023-04-25T01:18:22;9.40;99.90
15296;DHT22;7749;49.964;7.890;2023-04-25T01:20:52;9.50;99.90
15296;DHT22;7749;49.964;7.890;2023-04-25T01:23:22;9.40;99.90
15296;DHT22;7749;49.964;7.890;2023-04-25T01:25:50;9.50;99.90
15296;DHT22;7749;49.964;7.890;2023-04-25T01:28:18;9.40;99.90
15296;DHT22;7749;49.964;7.890;2023-04-25T01:30:47;9.40;99.90
15296;DHT22;7749;49.964;7.890;2023-04-25T01:33:19;9.50;99.90
15296;DHT22;7749;49.964;7.890;2023-04-25T01:35:51;9.50;99.90
15296;DHT22;7749;49.964;7.890;2023-04-25T01:38:19;9.50;99.90
15296;DHT22;7749;49.964;7.890;2023-04-25T01:40:49;9.40;99.90
15296;DHT22;7749;49.964;7.890;2023-04-25T01:43:18;9.40;99.90
15296;DHT22;7749;49.964;7.890;2023-04-25T01:45:45;9.40;99.90
15296;DHT22;7749;49.964;7.890;2023-04-25T01:48:19;9.40;99.90
15296;DHT22;7749;49.964;7.890;2023-04-25T01:50:47;9.30;99.90
15296;DHT22;7749;49.964;7.890;2023-04-25T01:53:15;9.30;99.90
15296;DHT22;7749;49.964;7.890;2023-04-25T01:55:43;9.40;99.90
15296;DHT22;7749;49.964;7.890;2023-04-25T01:58:10;9.40;99.90
15296;DHT22;7749;49.964;7.890;2023-04-25T02:00:40;9.30;99.90
15296;DHT22;7749;49.964;7.890;2023-04-25T02:03:08;9.30;99.90
15296;DHT22;7749;49.964;7.890;2023-04-25T02:05:37;9.20;99.90
15296;DHT22;7749;49.964;7.890;2023-04-25T02:08:06;9.20;99.90
15296;DHT22;7749;49.964;7.890;2023-04-25T02:10:34;9.20;99.90
15296;DHT22;7749;49.964;7.890;2023-04-25T02:13:03;9.20;99.90
15296;DHT22;7749;49.964;7.890;2023-04-25T02:15:32;9.20;99.90
15296;DHT22;7749;49.964;7.890;2023-04-25T02:18:00;9.20;99.90
15296;DHT22;7749;49.964;7.890;2023-04-25T02:20:29;9.10;99.90
15296;DHT22;7749;49.964;7.890;2023-04-25T02:22:57;9.30;99.90
15296;DHT22;7749;49.964;7.890;2023-04-25T02:25:25;9.20;99.90
15296;DHT22;7749;49.964;7.890;2023-04-25T02:27:53;9.10;99.90
15296;DHT22;7749;49.964;7.890;2023-04-25T02:30:21;9.00;99.90
15296;DHT22;7749;49.964;7.890;2023-04-25T02:32:49;9.10;99.90
15296;DHT22;7749;49.964;7.890;2023-04-25T02:35:19;9.10;99.90
15296;DHT22;7749;49.964;7.890;2023-04-25T02:37:47;9.00;99.90
15296;DHT22;7749;49.964;7.890;2023-04-25T02:40:15;9.00;99.90
15296;DHT22;7749;49.964;7.890;2023-04-25T02:42:42;9.10;99.90
15296;DHT22;7749;49.964;7.890;2023-04-25T02:45:13;9.00;99.90
15296;DHT22;7749;49.964;7.890;2023-04-25T02:47:40;9.00;99.90
15296;DHT22;7749;49.964;7.890;2023-04-25T02:50:10;9.10;99.90
15296;DHT22;7749;49.964;7.890;2023-04-25T02:52:38;9.10;99.90
15296;DHT22;7749;49.964;7.890;2023-04-25T02:55:06;9.00;99.90
15296;DHT22;7749;49.964;7.890;2023-04-25T02:57:34;9.10;99.90
15296;DHT22;7749;49.964;7.890;2023-04-25T03:00:02;9.10;99.90
15296;DHT22;7749;49.964;7.890;2023-04-25T03:02:32;9.10;99.90
15296;DHT22;7749;49.964;7.890;2023-04-25T03:04:59;9.10;99.90
15296;DHT22;7749;49.964;7.890;2023-04-25T03:07:30;9.20;99.90
15296;DHT22;7749;49.964;7.890;2023-04-25T03:09:57;9.10;99.90
15296;DHT22;7749;49.964;7.890;2023-04-25T03:12:25;9.10;99.90
15296;DHT22;7749;49.964;7.890;2023-04-25T03:14:53;9.00;99.90
15296;DHT22;7749;49.964;7.890;2023-04-25T03:17:20;8.90;99.90
15296;DHT22;7749;49.964;7.890;2023-04-25T03:19:48;9.00;99.90
15296;DHT22;7749;49.964;7.890;2023-04-25T03:22:16;9.00;99.90
15296;DHT22;7749;49.964;7.890;2023-04-25T03:24:43;9.00;99.90
15296;DHT22;7749;49.964;7.890;2023-04-25T03:27:11;8.90;99.90
15296;DHT22;7749;49.964;7.890;2023-04-25T03:29:39;8.80;99.90
15296;DHT22;7749;49.964;7.890;2023-04-25T03:32:10;8.80;99.90
15296;DHT22;7749;49.964;7.890;2023-04-25T03:34:38;8.80;99.90
15296;DHT22;7749;49.964;7.890;2023-04-25T03:37:06;8.80;99.90
15296;DHT22;7749;49.964;7.890;2023-04-25T03:39:36;8.70;99.90
15296;DHT22;7749;49.964;7.890;2023-04-25T03:42:05;8.70;99.90
15296;DHT22;7749;49.964;7.890;2023-04-25T03:44:33;8.70;99.90
15296;DHT22;7749;49.964;7.890;2023-04-25T03:47:00;8.70;99.90
15296;DHT22;7749;49.964;7.890;2023-04-25T03:49:28;8.60;99.90
15296;DHT22;7749;49.964;7.890;2023-04-25T03:51:58;8.50;99.90
15296;DHT22;7749;49.964;7.890;2023-04-25T03:54:26;8.70;99.90
15296;DHT22;7749;49.964;7.890;2023-04-25T03:56:54;8.60;99.90
15296;DHT22;7749;49.964;7.890;2023-04-25T03:59:22;8.50;99.90
15296;DHT22;7749;49.964;7.890;2023-04-25T04:01:50;8.50;99.90
15296;DHT22;7749;49.964;7.890;2023-04-25T04:04:18;8.60;99.90
15296;DHT22;7749;49.964;7.890;2023-04-25T04:06:46;8.60;99.90
15296;DHT22;7749;49.964;7.890;2023-04-25T04:09:13;8.70;99.90
15296;DHT22;7749;49.964;7.890;2023-04-25T04:11:41;8.80;99.90
15296;DHT22;7749;49.964;7.890;2023-04-25T04:14:09;8.90;99.90
15296;DHT22;7749;49.964;7.890;2023-04-25T04:16:37;8.90;99.90
15296;DHT22;7749;49.964;7.890;2023-04-25T04:19:05;8.90;99.90
15296;DHT22;7749;49.964;7.890;2023-04-25T04:21:33;8.90;99.90
15296;DHT22;7749;49.964;7.890;2023-04-25T04:24:03;9.00;99.90
15296;DHT22;7749;49.964;7.890;2023-04-25T04:26:32;9.00;99.90
15296;DHT22;7749;49.964;7.890;2023-04-25T04:29:01;9.10;99.90
15296;DHT22;7749;49.964;7.890;2023-04-25T04:31:29;8.80;99.90
15296;DHT22;7749;49.964;7.890;2023-04-25T04:33:57;8.70;99.90
15296;DHT22;7749;49.964;7.890;2023-04-25T04:36:27;8.70;99.90
15296;DHT22;7749;49.964;7.890;2023-04-25T04:38:55;8.60;99.90
15296;DHT22;7749;49.964;7.890;2023-04-25T04:41:23;8.80;99.90
15296;DHT22;7749;49.964;7.890;2023-04-25T04:43:51;8.80;99.90
15296;DHT22;7749;49.964;7.890;2023-04-25T04:46:23;8.80;99.90
15296;DHT22;7749;49.964;7.890;2023-04-25T04:48:52;8.80;99.90
15296;DHT22;7749;49.964;7.890;2023-04-25T04:51:20;8.90;99.90
15296;DHT22;7749;49.964;7.890;2023-04-25T04:53:48;8.90;99.90
15296;DHT22;7749;49.964;7.890;2023-04-25T04:56:16;8.90;99.90
15296;DHT22;7749;49.964;7.890;2023-04-25T04:58:44;9.00;99.90
15296;DHT22;7749;49.964;7.890;2023-04-25T05:01:12;8.80;93.70
15296;DHT22;7749;49.964;7.890;2023-04-25T05:03:39;8.80;62.90
15296;DHT22;7749;49.964;7.890;2023-04-25T05:06:09;8.90;84.00
15296;DHT22;7749;49.964;7.890;2023-04-25T05:08:37;9.00;79.50
15296;DHT22;7749;49.964;7.890;2023-04-25T05:11:08;9.10;87.20
15296;DHT22;7749;49.964;7.890;2023-04-25T05:13:38;9.00;62.40
15296;DHT22;7749;49.964;7.890;2023-04-25T05:16:06;9.00;60.10
15296;DHT22;7749;49.964;7.890;2023-04-25T05:18:36;9.00;67.70
15296;DHT22;7749;49.964;7.890;2023-04-25T05:21:04;9.10;51.80
15296;DHT22;7749;49.964;7.890;2023-04-25T05:23:35;8.90;50.60
15296;DHT22;7749;49.964;7.890;2023-04-25T05:26:03;8.90;54.30
15296;DHT22;7749;49.964;7.890;2023-04-25T05:28:31;9.10;56.40
15296;DHT22;7749;49.964;7.890;2023-04-25T05:30:59;9.10;57.80
15296;DHT22;7749;49.964;7.890;2023-04-25T05:33:26;9.20;59.70
15296;DHT22;7749;49.964;7.890;2023-04-25T05:35:54;9.20;48.30
15296;DHT22;7749;49.964;7.890;2023-04-25T05:38:21;9.10;44.20
15296;DHT22;7749;49.964;7.890;2023-04-25T05:40:49;9.10;54.50
15296;DHT22;7749;49.964;7.890;2023-04-25T05:43:21;9.20;31.90
15296;DHT22;7749;49.964;7.890;2023-04-25T05:45:49;9.20;12.60
15296;DHT22;7749;49.964;7.890;2023-04-25T05:48:17;9.10;21.50
15296;DHT22;7749;49.964;7.890;2023-04-25T05:50:47;9.10;12.90
15296;DHT22;7749;49.964;7.890;2023-04-25T05:53:15;9.10;1.30
15296;DHT22;7749;49.964;7.890;2023-04-25T05:55:42;9.10;7.80
15296;DHT22;7749;49.964;7.890;2023-04-25T05:58:10;9.00;1.00
15296;DHT22;7749;49.964;7.890;2023-04-25T06:00:38;9.00;12.50
15296;DHT22;7749;49.964;7.890;2023-04-25T06:03:05;9.00;1.00
15296;DHT22;7749;49.964;7.890;2023-04-25T06:05:47;9.00;26.30
15296;DHT22;7749;49.964;7.890;2023-04-25T06:08:15;9.00;16.20
15296;DHT22;7749;49.964;7.890;2023-04-25T06:10:42;8.90;12.80
15296;DHT22;7749;49.964;7.890;2023-04-25T06:13:10;9.00;1.00
15296;DHT22;7749;49.964;7.890;2023-04-25T06:15:38;8.90;5.70
15296;DHT22;7749;49.964;7.890;2023-04-25T06:18:07;9.00;4.90
15296;DHT22;7749;49.964;7.890;2023-04-25T06:20:34;9.10;3.80
15296;DHT22;7749;49.964;7.890;2023-04-25T06:23:02;9.10;4.80
15296;DHT22;7749;49.964;7.890;2023-04-25T06:25:30;9.20;1.00
15296;DHT22;7749;49.964;7.890;2023-04-25T06:28:00;9.30;1.00
15296;DHT22;7749;49.964;7.890;2023-04-25T06:30:28;9.40;1.00
15296;DHT22;7749;49.964;7.890;2023-04-25T06:32:56;9.30;1.00
15296;DHT22;7749;49.964;7.890;2023-04-25T06:35:23;9.50;1.00
15296;DHT22;7749;49.964;7.890;2023-04-25T06:37:51;9.70;1.00
15296;DHT22;7749;49.964;7.890;2023-04-25T06:40:19;9.40;1.00
15296;DHT22;7749;49.964;7.890;2023-04-25T06:42:49;9.60;1.00
15296;DHT22;7749;49.964;7.890;2023-04-25T06:45:17;9.70;1.00
15296;DHT22;7749;49.964;7.890;2023-04-25T06:47:44;9.70;1.00
15296;DHT22;7749;49.964;7.890;2023-04-25T06:50:12;9.80;1.00
15296;DHT22;7749;49.964;7.890;2023-04-25T06:52:40;9.90;1.00
15296;DHT22;7749;49.964;7.890;2023-04-25T06:55:08;10.40;1.00
15296;DHT22;7749;49.964;7.890;2023-04-25T06:57:36;10.10;1.00
15296;DHT22;7749;49.964;7.890;2023-04-25T07:00:05;10.00;1.00
15296;DHT22;7749;49.964;7.890;2023-04-25T07:02:36;10.00;99.90
15296;DHT22;7749;49.964;7.890;2023-04-25T07:05:04;9.80;1.00
15296;DHT22;7749;49.964;7.890;2023-04-25T07:07:34;9.60;99.90
15296;DHT22;7749;49.964;7.890;2023-04-25T07:10:02;9.60;99.90
15296;DHT22;7749;49.964;7.890;2023-04-25T07:12:30;9.60;1.00
15296;DHT22;7749;49.964;7.890;2023-04-25T07:14:58;9.80;99.90
15296;DHT22;7749;49.964;7.890;2023-04-25T07:17:26;9.80;1.00
15296;DHT22;7749;49.964;7.890;2023-04-25T07:19:55;10.00;1.00
15296;DHT22;7749;49.964;7.890;2023-04-25T07:22:23;9.90;1.00
15296;DHT22;7749;49.964;7.890;2023-04-25T07:24:55;9.80;99.90
15296;DHT22;7749;49.964;7.890;2023-04-25T07:27:31;10.00;1.00
15296;DHT22;7749;49.964;7.890;2023-04-25T07:29:58;9.90;1.00
15296;DHT22;7749;49.964;7.890;2023-04-25T07:32:26;9.90;99.90
15296;DHT22;7749;49.964;7.890;2023-04-25T07:34:57;9.90;1.00
15296;DHT22;7749;49.964;7.890;2023-04-25T07:37:26;9.90;1.00
15296;DHT22;7749;49.964;7.890;2023-04-25T07:39:55;10.20;1.00
15296;DHT22;7749;49.964;7.890;2023-04-25T07:42:22;10.30;1.00
15296;DHT22;7749;49.964;7.890;2023-04-25T07:44:50;10.40;1.00
15296;DHT22;7749;49.964;7.890;2023-04-25T07:47:19;10.40;1.00
15296;DHT22;7749;49.964;7.890;2023-04-25T07:49:49;10.50;99.90
15296;DHT22;7749;49.964;7.890;2023-04-25T07:52:17;10.10;99.90
15296;DHT22;7749;49.964;7.890;2023-04-25T07:54:45;10.20;1.00
15296;DHT22;7749;49.964;7.890;2023-04-25T07:57:12;10.90;99.90
15296;DHT22;7749;49.964;7.890;2023-04-25T07:59:42;10.40;99.90
15296;DHT22;7749;49.964;7.890;2023-04-25T08:02:10;10.60;99.90
15296;DHT22;7749;49.964;7.890;2023-04-25T08:04:38;10.30;1.00
15296;DHT22;7749;49.964;7.890;2023-04-25T08:07:06;10.60;1.00
15296;DHT22;7749;49.964;7.890;2023-04-25T08:09:34;10.70;1.00
15296;DHT22;7749;49.964;7.890;2023-04-25T08:12:04;10.80;57.10
15296;DHT22;7749;49.964;7.890;2023-04-25T08:14:32;11.00;1.00
15296;DHT22;7749;49.964;7.890;2023-04-25T08:17:03;11.10;99.90
15296;DHT22;7749;49.964;7.890;2023-04-25T08:19:33;11.10;1.00
15296;DHT22;7749;49.964;7.890;2023-04-25T08:22:04;11.50;99.90
15296;DHT22;7749;49.964;7.890;2023-04-25T08:24:31;11.20;1.00
15296;DHT22;7749;49.964;7.890;2023-04-25T08:26:59;11.30;99.90
15296;DHT22;7749;49.964;7.890;2023-04-25T08:29:27;10.90;1.00
15296;DHT22;7749;49.964;7.890;2023-04-25T08:31:57;11.10;1.00
15296;DHT22;7749;49.964;7.890;2023-04-25T08:34:25;11.10;99.90
15296;DHT22;7749;49.964;7.890;2023-04-25T08:36:53;11.10;99.90
15296;DHT22;7749;49.964;7.890;2023-04-25T08:39:21;11.00;1.00
15296;DHT22;7749;49.964;7.890;2023-04-25T08:41:48;11.50;1.00
15296;DHT22;7749;49.964;7.890;2023-04-25T08:44:17;11.60;1.00
15296;DHT22;7749;49.964;7.890;2023-04-25T08:46:46;11.70;1.00
15296;DHT22;7749;49.964;7.890;2023-04-25T08:49:17;11.70;99.90
15296;DHT22;7749;49.964;7.890;2023-04-25T08:51:49;11.60;1.00
15296;DHT22;7749;49.964;7.890;2023-04-25T08:54:20;11.70;1.00
15296;DHT22;7749;49.964;7.890;2023-04-25T08:57:02;12.00;99.90
15296;DHT22;7749;49.964;7.890;2023-04-25T08:59:32;11.40;99.90
15296;DHT22;7749;49.964;7.890;2023-04-25T09:02:00;11.20;1.00
15296;DHT22;7749;49.964;7.890;2023-04-25T09:04:31;11.30;1.00
15296;DHT22;7749;49.964;7.890;2023-04-25T09:06:59;11.40;1.00
15296;DHT22;7749;49.964;7.890;2023-04-25T09:09:26;11.30;1.00
15296;DHT22;7749;49.964;7.890;2023-04-25T09:11:54;11.40;1.00
15296;DHT22;7749;49.964;7.890;2023-04-25T09:14:23;11.20;1.00
15296;DHT22;7749;49.964;7.890;2023-04-25T09:19:26;11.50;1.00
15296;DHT22;7749;49.964;7.890;2023-04-25T09:22:07;11.70;99.90
15296;DHT22;7749;49.964;7.890;2023-04-25T09:24:45;12.10;1.00
15296;DHT22;7749;49.964;7.890;2023-04-25T09:27:21;12.60;1.00
15296;DHT22;7749;49.964;7.890;2023-04-25T09:29:58;13.10;97.20
15296;DHT22;7749;49.964;7.890;2023-04-25T09:32:28;13.40;1.00
15296;DHT22;7749;49.964;7.890;2023-04-25T09:34:57;12.80;1.00
15296;DHT22;7749;49.964;7.890;2023-04-25T09:37:29;12.40;1.00
15296;DHT22;7749;49.964;7.890;2023-04-25T09:39:59;12.10;1.00
15296;DHT22;7749;49.964;7.890;2023-04-25T09:42:32;12.00;1.00
15296;DHT22;7749;49.964;7.890;2023-04-25T09:45:04;12.30;1.00
15296;DHT22;7749;49.964;7.890;2023-04-25T09:47:32;12.00;1.00
15296;DHT22;7749;49.964;7.890;2023-04-25T09:50:17;11.90;1.00
15296;DHT22;7749;49.964;7.890;2023-04-25T09:53:05;11.90;1.00
15296;DHT22;7749;49.964;7.890;2023-04-25T09:55:36;11.80;1.00
15296;DHT22;7749;49.964;7.890;2023-04-25T09:58:05;11.90;1.00
15296;DHT22;7749;49.964;7.890;2023-04-25T10:00:37;12.10;1.00
15296;DHT22;7749;49.964;7.890;2023-04-25T10:03:05;12.10;1.00
15296;DHT22;7749;49.964;7.890;2023-04-25T10:05:34;12.60;1.00
15296;DHT22;7749;49.964;7.890;2023-04-25T10:08:03;12.40;1.00
15296;DHT22;7749;49.964;7.890;2023-04-25T10:10:35;12.80;1.00
15296;DHT22;7749;49.964;7.890;2023-04-25T10:13:08;13.10;99.90
15296;DHT22;7749;49.964;7.890;2023-04-25T10:15:41;13.50;99.90
15296;DHT22;7749;49.964;7.890;2023-04-25T10:18:12;13.60;99.90
15296;DHT22;7749;49.964;7.890;2023-04-25T10:20:40;13.40;6.30
15296;DHT22;7749;49.964;7.890;2023-04-25T10:23:13;12.90;27.90
15296;DHT22;7749;49.964;7.890;2023-04-25T10:25:55;12.80;90.20
15296;DHT22;7749;49.964;7.890;2023-04-25T10:28:25;12.50;99.90
15296;DHT22;7749;49.964;7.890;2023-04-25T10:31:02;12.70;99.90
15296;DHT22;7749;49.964;7.890;2023-04-25T10:33:39;12.40;99.90
15296;DHT22;7749;49.964;7.890;2023-04-25T10:36:14;12.50;99.90
15296;DHT22;7749;49.964;7.890;2023-04-25T10:38:43;12.40;99.90
15296;DHT22;7749;49.964;7.890;2023-04-25T10:41:17;12.70;99.90
15296;DHT22;7749;49.964;7.890;2023-04-25T10:43:47;12.60;99.90
15296;DHT22;7749;49.964;7.890;2023-04-25T10:46:19;12.90;99.00
15296;DHT22;7749;49.964;7.890;2023-04-25T10:48:54;13.50;76.80
15296;DHT22;7749;49.964;7.890;2023-04-25T10:51:24;14.20;1.00
15296;DHT22;7749;49.964;7.890;2023-04-25T10:54:03;14.50;1.00
15296;DHT22;7749;49.964;7.890;2023-04-25T10:59:10;14.40;1.00
15296;DHT22;7749;49.964;7.890;2023-04-25T11:04:32;13.90;1.00
15296;DHT22;7749;49.964;7.890;2023-04-25T11:07:11;13.60;1.00
15296;DHT22;7749;49.964;7.890;2023-04-25T11:09:41;13.40;1.00
15296;DHT22;7749;49.964;7.890;2023-04-25T11:12:09;13.10;1.00
15296;DHT22;7749;49.964;7.890;2023-04-25T11:14:39;12.90;1.00
15296;DHT22;7749;49.964;7.890;2023-04-25T11:17:12;13.00;1.00
15296;DHT22;7749;49.964;7.890;2023-04-25T11:19:39;12.50;1.00
15296;DHT22;7749;49.964;7.890;2023-04-25T11:22:07;12.10;1.00
15296;DHT22;7749;49.964;7.890;2023-04-25T11:24:35;12.10;1.00
15296;DHT22;7749;49.964;7.890;2023-04-25T11:27:04;12.20;1.00
15296;DHT22;7749;49.964;7.890;2023-04-25T11:29:35;12.50;1.00
15296;DHT22;7749;49.964;7.890;2023-04-25T11:32:03;12.60;1.00
15296;DHT22;7749;49.964;7.890;2023-04-25T11:34:32;12.90;1.00
15296;DHT22;7749;49.964;7.890;2023-04-25T11:37:01;13.40;1.00
15296;DHT22;7749;49.964;7.890;2023-04-25T11:39:30;15.30;1.00
15296;DHT22;7749;49.964;7.890;2023-04-25T11:41:58;17.20;1.00
15296;DHT22;7749;49.964;7.890;2023-04-25T11:44:28;18.50;1.00
15296;DHT22;7749;49.964;7.890;2023-04-25T11:46:57;17.60;1.00
15296;DHT22;7749;49.964;7.890;2023-04-25T11:49:30;16.40;1.00
15296;DHT22;7749;49.964;7.890;2023-04-25T11:51:59;15.60;1.00
15296;DHT22;7749;49.964;7.890;2023-04-25T11:54:26;15.70;1.00
15296;DHT22;7749;49.964;7.890;2023-04-25T11:56:56;15.40;1.00
15296;DHT22;7749;49.964;7.890;2023-04-25T11:59:24;15.60;1.00
15296;DHT22;7749;49.964;7.890;2023-04-25T12:01:53;15.40;1.00
15296;DHT22;7749;49.964;7.890;2023-04-25T12:04:22;14.40;1.00
15296;DHT22;7749;49.964;7.890;2023-04-25T12:06:53;14.60;1.00
15296;DHT22;7749;49.964;7.890;2023-04-25T12:09:28;14.20;1.00
15296;DHT22;7749;49.964;7.890;2023-04-25T12:11:57;14.80;1.00
15296;DHT22;7749;49.964;7.890;2023-04-25T12:14:27;14.60;1.00
15296;DHT22;7749;49.964;7.890;2023-04-25T12:17:01;14.90;1.00
15296;DHT22;7749;49.964;7.890;2023-04-25T12:19:33;15.00;1.00
15296;DHT22;7749;49.964;7.890;2023-04-25T12:22:02;15.50;1.00
15296;DHT22;7749;49.964;7.890;2023-04-25T12:24:34;16.40;1.00
15296;DHT22;7749;49.964;7.890;2023-04-25T12:27:06;17.00;1.00
15296;DHT22;7749;49.964;7.890;2023-04-25T12:29:35;18.80;1.00
15296;DHT22;7749;49.964;7.890;2023-04-25T12:32:16;17.90;1.00
15296;DHT22;7749;49.964;7.890;2023-04-25T12:34:44;18.30;1.00
15296;DHT22;7749;49.964;7.890;2023-04-25T12:37:13;18.60;1.00
15296;DHT22;7749;49.964;7.890;2023-04-25T12:39:40;18.10;1.00
15296;DHT22;7749;49.964;7.890;2023-04-25T12:42:10;18.00;1.00
15296;DHT22;7749;49.964;7.890;2023-04-25T12:44:39;16.60;1.00
15296;DHT22;7749;49.964;7.890;2023-04-25T12:47:08;16.50;1.00
15296;DHT22;7749;49.964;7.890;2023-04-25T12:49:37;17.60;1.00
15296;DHT22;7749;49.964;7.890;2023-04-25T12:52:04;19.50;1.00
15296;DHT22;7749;49.964;7.890;2023-04-25T12:54:32;20.00;99.90
15296;DHT22;7749;49.964;7.890;2023-04-25T12:57:00;21.00;99.90
15296;DHT22;7749;49.964;7.890;2023-04-25T12:59:30;21.40;99.90
15296;DHT22;7749;49.964;7.890;2023-04-25T13:01:57;22.20;99.90
15296;DHT22;7749;49.964;7.890;2023-04-25T13:04:28;22.00;99.90
15296;DHT22;7749;49.964;7.890;2023-04-25T13:06:56;22.60;99.90
15296;DHT22;7749;49.964;7.890;2023-04-25T13:09:24;23.70;99.90
15296;DHT22;7749;49.964;7.890;2023-04-25T13:11:51;23.50;99.90
15296;DHT22;7749;49.964;7.890;2023-04-25T13:14:23;21.50;99.90
15296;DHT22;7749;49.964;7.890;2023-04-25T13:16:54;20.90;99.90
15296;DHT22;7749;49.964;7.890;2023-04-25T13:19:22;21.20;99.90
15296;DHT22;7749;49.964;7.890;2023-04-25T13:21:50;20.20;99.90
15296;DHT22;7749;49.964;7.890;2023-04-25T13:24:17;19.30;99.90
15296;DHT22;7749;49.964;7.890;2023-04-25T13:26:45;18.20;99.90
15296;DHT22;7749;49.964;7.890;2023-04-25T13:29:15;17.70;99.90
15296;DHT22;7749;49.964;7.890;2023-04-25T13:31:43;17.10;99.90
15296;DHT22;7749;49.964;7.890;2023-04-25T13:34:14;16.30;99.90
15296;DHT22;7749;49.964;7.890;2023-04-25T13:36:42;15.40;99.90
15296;DHT22;7749;49.964;7.890;2023-04-25T13:39:10;15.20;99.90
15296;DHT22;7749;49.964;7.890;2023-04-25T13:41:38;15.40;99.90
15296;DHT22;7749;49.964;7.890;2023-04-25T13:44:06;15.30;99.90
15296;DHT22;7749;49.964;7.890;2023-04-25T13:46:34;15.30;99.90
15296;DHT22;7749;49.964;7.890;2023-04-25T13:49:14;14.90;99.90
15296;DHT22;7749;49.964;7.890;2023-04-25T13:51:42;14.40;99.90
15296;DHT22;7749;49.964;7.890;2023-04-25T13:54:10;14.40;99.90
15296;DHT22;7749;49.964;7.890;2023-04-25T13:56:38;14.00;99.90
15296;DHT22;7749;49.964;7.890;2023-04-25T13:59:05;14.00;99.90
15296;DHT22;7749;49.964;7.890;2023-04-25T14:01:33;14.20;99.90
15296;DHT22;7749;49.964;7.890;2023-04-25T14:04:03;14.60;99.90
15296;DHT22;7749;49.964;7.890;2023-04-25T14:06:34;14.80;99.90
15296;DHT22;7749;49.964;7.890;2023-04-25T14:09:03;14.70;99.90
15296;DHT22;7749;49.964;7.890;2023-04-25T14:11:32;14.80;99.90
15296;DHT22;7749;49.964;7.890;2023-04-25T14:13:59;14.60;99.90
15296;DHT22;7749;49.964;7.890;2023-04-25T14:16:55;14.80;99.90
15296;DHT22;7749;49.964;7.890;2023-04-25T14:19:18;14.50;99.90
15296;DHT22;7749;49.964;7.890;2023-04-25T14:21:48;14.40;99.90
15296;DHT22;7749;49.964;7.890;2023-04-25T14:24:18;14.30;99.90
15296;DHT22;7749;49.964;7.890;2023-04-25T14:26:46;14.40;99.90
15296;DHT22;7749;49.964;7.890;2023-04-25T14:29:13;14.60;99.90
15296;DHT22;7749;49.964;7.890;2023-04-25T14:31:41;14.40;99.90
15296;DHT22;7749;49.964;7.890;2023-04-25T14:34:09;14.20;99.90
15296;DHT22;7749;49.964;7.890;2023-04-25T14:36:36;13.80;99.90
15296;DHT22;7749;49.964;7.890;2023-04-25T14:39:04;13.90;99.90
15296;DHT22;7749;49.964;7.890;2023-04-25T14:41:34;14.00;99.90
15296;DHT22;7749;49.964;7.890;2023-04-25T14:44:02;13.80;99.90
15296;DHT22;7749;49.964;7.890;2023-04-25T14:46:31;13.20;99.90
15296;DHT22;7749;49.964;7.890;2023-04-25T14:48:58;13.40;99.90
15296;DHT22;7749;49.964;7.890;2023-04-25T14:51:29;13.00;99.90
15296;DHT22;7749;49.964;7.890;2023-04-25T14:53:58;12.80;99.90
15296;DHT22;7749;49.964;7.890;2023-04-25T14:56:26;12.90;99.90
15296;DHT22;7749;49.964;7.890;2023-04-25T14:58:53;12.90;99.90
15296;DHT22;7749;49.964;7.890;2023-04-25T15:01:21;12.70;99.90
15296;DHT22;7749;49.964;7.890;2023-04-25T15:03:53;13.10;99.90
15296;DHT22;7749;49.964;7.890;2023-04-25T15:06:21;13.70;99.90
15296;DHT22;7749;49.964;7.890;2023-04-25T15:08:49;14.80;99.90
15296;DHT22;7749;49.964;7.890;2023-04-25T15:11:16;15.40;99.90
15296;DHT22;7749;49.964;7.890;2023-04-25T15:13:44;15.10;99.90
15296;DHT22;7749;49.964;7.890;2023-04-25T15:16:12;15.20;99.90
15296;DHT22;7749;49.964;7.890;2023-04-25T15:18:40;15.40;99.90
15296;DHT22;7749;49.964;7.890;2023-04-25T15:21:08;15.70;99.90
15296;DHT22;7749;49.964;7.890;2023-04-25T15:23:35;16.80;99.90
15296;DHT22;7749;49.964;7.890;2023-04-25T15:26:03;16.90;99.90
15296;DHT22;7749;49.964;7.890;2023-04-25T15:28:31;16.40;99.90
15296;DHT22;7749;49.964;7.890;2023-04-25T15:31:02;16.30;99.90
15296;DHT22;7749;49.964;7.890;2023-04-25T15:33:30;17.40;99.90
15296;DHT22;7749;49.964;7.890;2023-04-25T15:36:01;18.70;99.90
15296;DHT22;7749;49.964;7.890;2023-04-25T15:38:30;19.70;99.90
15296;DHT22;7749;49.964;7.890;2023-04-25T15:40:58;20.10;99.90
15296;DHT22;7749;49.964;7.890;2023-04-25T15:43:26;19.10;99.90
15296;DHT22;7749;49.964;7.890;2023-04-25T15:45:53;17.90;99.90
15296;DHT22;7749;49.964;7.890;2023-04-25T15:48:21;16.50;99.90
15296;DHT22;7749;49.964;7.890;2023-04-25T15:50:49;15.80;99.90
15296;DHT22;7749;49.964;7.890;2023-04-25T15:53:16;15.80;99.90
15296;DHT22;7749;49.964;7.890;2023-04-25T15:55:44;16.40;99.90
15296;DHT22;7749;49.964;7.890;2023-04-25T15:58:11;17.60;99.90
15296;DHT22;7749;49.964;7.890;2023-04-25T16:00:39;17.50;99.90
15296;DHT22;7749;49.964;7.890;2023-04-25T16:03:07;17.40;99.90
15296;DHT22;7749;49.964;7.890;2023-04-25T16:05:36;16.90;99.90
15296;DHT22;7749;49.964;7.890;2023-04-25T16:08:04;16.80;99.90
15296;DHT22;7749;49.964;7.890;2023-04-25T16:10:32;16.70;99.90
15296;DHT22;7749;49.964;7.890;2023-04-25T16:12:59;16.10;99.90
15296;DHT22;7749;49.964;7.890;2023-04-25T16:15:27;15.90;99.90
15296;DHT22;7749;49.964;7.890;2023-04-25T16:17:54;15.70;99.90